createdAt,value
2018-07-10T00:03:54.738Z,81.80
2018-07-10T00:07:35.450Z,81.80
2018-07-10T00:12:17.096Z,82.90
2018-07-10T00:14:45.776Z,82.60
2018-07-10T00:17:14.824Z,81.70
2018-07-10T00:19:43.496Z,81.50
2018-07-10T00:22:12.212Z,81.50
2018-07-10T00:27:09.420Z,80.80
2018-07-10T00:29:38.509Z,81.70
2018-07-10T00:32:08.196Z,81.10
2018-07-10T00:34:36.894Z,80.60
2018-07-10T00:37:06.027Z,80.20
2018-07-10T00:39:34.700Z,79.90
2018-07-10T00:42:03.401Z,80.50
2018-07-10T00:44:32.099Z,80.60
2018-07-10T00:47:00.736Z,81.10
2018-07-10T00:49:30.124Z,80.90
2018-07-10T00:51:58.861Z,80.80
2018-07-10T00:54:27.580Z,80.30
2018-07-10T00:56:56.287Z,80.70
2018-07-10T00:59:25.141Z,80.20
2018-07-10T01:01:55.309Z,80.60
2018-07-10T01:04:24.632Z,80.60
2018-07-10T01:06:53.944Z,80.80
2018-07-10T01:09:22.634Z,80.30
2018-07-10T01:11:52.167Z,80.20
2018-07-10T01:14:20.874Z,79.90
2018-07-10T01:16:49.547Z,80.40
2018-07-10T01:19:18.808Z,81.00
2018-07-10T01:21:48.653Z,81.20
2018-07-10T01:24:18.642Z,81.80
2018-07-10T01:26:48.912Z,81.50
2018-07-10T01:29:23.532Z,82.10
2018-07-10T01:31:53.803Z,82.50
2018-07-10T01:34:23.223Z,82.70
2018-07-10T01:36:52.824Z,82.40
2018-07-10T01:39:21.566Z,82.80
2018-07-10T01:41:50.384Z,82.80
2018-07-10T01:44:19.164Z,82.70
2018-07-10T01:46:47.780Z,82.60
2018-07-10T01:49:16.566Z,82.70
2018-07-10T01:51:45.172Z,82.60
2018-07-10T01:54:14.293Z,82.80
2018-07-10T01:56:42.996Z,83.10
2018-07-10T01:59:11.729Z,82.60
2018-07-10T02:01:40.454Z,82.60
2018-07-10T02:04:10.025Z,82.30
2018-07-10T02:06:39.221Z,82.60
2018-07-10T02:09:08.402Z,82.30
2018-07-10T02:11:37.130Z,82.20
2018-07-10T02:14:07.592Z,81.80
2018-07-10T02:16:36.859Z,81.40
2018-07-10T02:19:05.649Z,81.50
2018-07-10T02:21:35.101Z,81.20
2018-07-10T02:24:03.930Z,81.30
2018-07-10T02:26:32.728Z,81.10
2018-07-10T02:29:01.428Z,80.80
2018-07-10T02:31:30.901Z,80.60
2018-07-10T02:33:59.605Z,80.80
2018-07-10T02:36:28.362Z,81.10
2018-07-10T02:38:58.529Z,81.40
2018-07-10T02:41:27.239Z,81.70
2018-07-10T02:44:02.709Z,81.60
2018-07-10T02:46:36.005Z,81.50
2018-07-10T02:49:17.296Z,81.80
2018-07-10T02:52:00.297Z,81.80
2018-07-10T02:54:32.968Z,82.00
2018-07-10T02:57:02.925Z,82.00
2018-07-10T02:59:34.474Z,82.20
2018-07-10T03:02:03.896Z,82.40
2018-07-10T03:04:34.224Z,82.40
2018-07-10T03:07:03.374Z,82.60
2018-07-10T03:09:32.115Z,82.60
2018-07-10T03:12:01.502Z,82.50
2018-07-10T03:14:30.173Z,82.50
2018-07-10T03:16:59.795Z,82.40
2018-07-10T03:19:29.349Z,82.50
2018-07-10T03:21:58.536Z,82.60
2018-07-10T03:24:27.247Z,82.50
2018-07-10T03:26:56.038Z,82.30
2018-07-10T03:29:25.113Z,82.40
2018-07-10T03:31:53.865Z,82.50
2018-07-10T03:34:22.849Z,82.50
2018-07-10T03:36:51.853Z,82.60
2018-07-10T03:39:20.577Z,82.60
2018-07-10T03:41:49.314Z,82.70
2018-07-10T03:44:19.165Z,83.20
2018-07-10T03:46:47.981Z,82.90
2018-07-10T03:49:16.678Z,83.40
2018-07-10T03:51:45.411Z,83.20
2018-07-10T03:54:14.133Z,83.20
2018-07-10T03:56:43.080Z,83.20
2018-07-10T03:59:11.872Z,83.60
2018-07-10T04:01:41.314Z,83.20
2018-07-10T04:04:10.024Z,83.20
2018-07-10T04:06:38.745Z,83.20
2018-07-10T04:09:08.428Z,83.40
2018-07-10T04:11:42.023Z,83.40
2018-07-10T04:14:10.740Z,83.50
2018-07-10T04:16:39.699Z,83.90
2018-07-10T04:19:08.416Z,84.20
2018-07-10T04:21:37.132Z,84.50
2018-07-10T04:24:12.748Z,84.60
2018-07-10T04:26:51.814Z,85.10
2018-07-10T04:29:26.805Z,85.30
2018-07-10T04:31:58.599Z,85.60
2018-07-10T04:34:29.686Z,85.60
2018-07-10T04:37:04.971Z,85.90
2018-07-10T04:39:35.329Z,85.50
2018-07-10T04:42:26.207Z,85.50
2018-07-10T04:47:34.555Z,86.00
2018-07-10T04:50:10.186Z,85.80
2018-07-10T04:52:41.626Z,86.00
2018-07-10T04:55:12.774Z,85.60
2018-07-10T04:58:04.941Z,85.70
2018-07-10T05:00:35.865Z,86.00
2018-07-10T05:03:04.577Z,86.20
2018-07-10T05:05:34.177Z,86.80
2018-07-10T05:08:04.961Z,86.20
2018-07-10T05:10:36.207Z,86.10
2018-07-10T05:13:06.438Z,86.10
2018-07-10T05:15:36.320Z,85.20
2018-07-10T05:18:08.221Z,85.30
2018-07-10T05:20:37.126Z,85.60
2018-07-10T05:23:05.852Z,85.70
2018-07-10T05:25:37.265Z,85.60
2018-07-10T05:28:05.944Z,85.30
2018-07-10T05:30:36.173Z,85.00
2018-07-10T05:33:05.433Z,85.00
2018-07-10T05:35:34.933Z,85.00
2018-07-10T05:38:06.445Z,84.60
2018-07-10T05:40:35.160Z,84.60
2018-07-10T05:43:20.813Z,84.10
2018-07-10T05:45:49.533Z,83.90
2018-07-10T05:48:18.638Z,84.30
2018-07-10T05:50:47.335Z,83.80
2018-07-10T05:53:16.013Z,84.40
2018-07-10T05:55:47.966Z,83.80
2018-07-10T05:58:17.291Z,83.40
2018-07-10T06:00:45.988Z,83.10
2018-07-10T06:03:14.693Z,83.70
2018-07-10T06:05:43.670Z,83.10
2018-07-10T06:08:13.930Z,82.60
2018-07-10T06:10:43.063Z,82.70
2018-07-10T06:13:11.896Z,83.50
2018-07-10T06:15:40.673Z,82.70
2018-07-10T06:18:09.571Z,83.30
2018-07-10T06:20:39.874Z,83.20
2018-07-10T06:23:09.192Z,83.40
2018-07-10T06:25:37.950Z,83.50
2018-07-10T06:28:09.711Z,83.80
2018-07-10T06:30:39.443Z,84.00
2018-07-10T06:33:17.219Z,83.70
2018-07-10T06:35:48.301Z,83.70
2018-07-10T06:38:18.298Z,84.00
2018-07-10T06:40:51.252Z,83.80
2018-07-10T06:43:55.296Z,84.00
2018-07-10T06:46:45.598Z,85.20
2018-07-10T06:49:25.357Z,85.20
2018-07-10T06:52:10.070Z,85.40
2018-07-10T06:55:05.085Z,86.40
2018-07-10T06:57:34.999Z,87.10
2018-07-10T07:00:10.589Z,88.00
2018-07-10T07:02:40.089Z,87.70
2018-07-10T07:05:09.050Z,88.70
2018-07-10T07:07:39.448Z,88.40
2018-07-10T07:10:10.092Z,88.70
2018-07-10T07:12:40.560Z,88.40
2018-07-10T07:15:10.975Z,89.00
2018-07-10T07:17:43.059Z,89.10
2018-07-10T07:20:11.772Z,89.60
2018-07-10T07:22:40.477Z,90.20
2018-07-10T07:25:09.174Z,90.10
2018-07-10T07:27:37.900Z,90.20
2018-07-10T07:30:06.604Z,90.40
2018-07-10T07:32:36.129Z,90.80
2018-07-10T07:35:04.955Z,90.60
2018-07-10T07:37:37.490Z,90.90
2018-07-10T07:40:06.319Z,91.00
2018-07-10T07:42:35.081Z,91.20
2018-07-10T07:45:03.948Z,91.10
2018-07-10T07:47:32.733Z,91.60
2018-07-10T07:50:01.448Z,91.80
2018-07-10T07:52:31.397Z,92.30
2018-07-10T07:57:30.038Z,92.40
2018-07-10T07:59:58.775Z,93.10
2018-07-10T08:02:27.500Z,93.50
2018-07-10T08:04:56.160Z,93.50
2018-07-10T08:07:26.546Z,93.40
2018-07-10T08:09:56.807Z,93.70
2018-07-10T08:12:26.524Z,93.90
2018-07-10T08:14:55.648Z,93.60
2018-07-10T08:17:25.488Z,93.30
2018-07-10T08:19:56.221Z,93.80
2018-07-10T08:22:25.705Z,93.60
2018-07-10T08:24:54.797Z,94.20
2018-07-10T08:27:24.328Z,94.00
2018-07-10T08:29:53.645Z,94.10
2018-07-10T08:32:22.313Z,94.10
2018-07-10T08:34:50.997Z,93.90
2018-07-10T08:37:19.753Z,93.70
2018-07-10T08:39:49.033Z,94.00
2018-07-10T08:42:18.079Z,93.70
2018-07-10T08:44:46.778Z,93.60
2018-07-10T08:49:43.730Z,93.30
2018-07-10T08:52:13.311Z,93.10
2018-07-10T08:54:42.661Z,93.00
2018-07-10T08:57:11.885Z,92.90
2018-07-10T08:59:40.624Z,92.50
2018-07-10T09:02:10.001Z,92.20
2018-07-10T09:04:38.615Z,92.00
2018-07-10T09:07:09.113Z,91.60
2018-07-10T09:09:37.876Z,91.70
2018-07-10T09:12:06.550Z,91.50
2018-07-10T09:14:35.251Z,91.30
2018-07-10T09:17:03.978Z,91.70
2018-07-10T09:19:33.279Z,91.60
2018-07-10T09:22:07.445Z,91.50
2018-07-10T09:27:13.221Z,92.10
2018-07-10T09:29:41.921Z,92.70
2018-07-10T09:32:12.083Z,93.10
2018-07-10T09:34:40.767Z,93.30
2018-07-10T09:38:13.696Z,93.30
2018-07-10T09:40:42.597Z,93.30
2018-07-10T09:43:11.394Z,93.40
2018-07-10T09:45:40.717Z,93.00
2018-07-10T09:48:10.162Z,93.50
2018-07-10T09:50:40.179Z,93.50
2018-07-10T09:53:09.520Z,93.30
2018-07-10T09:55:38.206Z,93.30
2018-07-10T09:58:08.842Z,93.20
2018-07-10T10:00:43.015Z,93.30
2018-07-10T10:03:12.971Z,93.70
2018-07-10T10:05:43.784Z,93.40
2018-07-10T10:08:13.089Z,93.50
2018-07-10T10:10:41.945Z,93.60
2018-07-10T10:13:10.631Z,93.50
2018-07-10T10:15:39.304Z,93.10
2018-07-10T10:18:09.929Z,93.30
2018-07-10T10:20:40.432Z,93.70
2018-07-10T10:23:13.420Z,93.10
2018-07-10T10:25:49.393Z,93.70
2018-07-10T10:28:19.755Z,93.00
2018-07-10T10:30:48.409Z,93.30
2018-07-10T10:33:17.719Z,93.80
2018-07-10T10:35:46.416Z,93.40
2018-07-10T10:38:16.682Z,93.00
2018-07-10T10:40:47.369Z,93.60
2018-07-10T10:43:16.572Z,92.90
2018-07-10T10:45:45.662Z,92.90
2018-07-10T10:48:15.913Z,93.10
2018-07-10T10:50:48.245Z,92.60
2018-07-10T10:53:17.809Z,92.70
2018-07-10T10:55:47.115Z,92.40
2018-07-10T10:58:15.850Z,92.50
2018-07-10T11:00:45.200Z,93.00
2018-07-10T11:03:15.391Z,93.00
2018-07-10T11:05:45.604Z,92.60
2018-07-10T11:08:14.776Z,92.90
2018-07-10T11:10:44.929Z,92.90
2018-07-10T11:13:15.657Z,93.20
2018-07-10T11:15:45.893Z,93.20
2018-07-10T11:18:39.858Z,93.00
2018-07-10T11:21:13.902Z,92.70
2018-07-10T11:23:53.003Z,93.00
2018-07-10T11:26:33.330Z,93.00
2018-07-10T11:29:03.038Z,92.60
2018-07-10T11:31:31.725Z,92.60
2018-07-10T11:34:00.438Z,93.00
2018-07-10T11:36:29.401Z,93.00
2018-07-10T11:39:05.785Z,92.50
2018-07-10T11:41:41.470Z,92.20
2018-07-10T11:44:10.141Z,92.20
2018-07-10T11:46:39.225Z,92.50
2018-07-10T11:49:08.202Z,92.30
2018-07-10T11:51:36.929Z,92.30
2018-07-10T11:54:06.251Z,92.10
2018-07-10T11:56:34.928Z,92.30
2018-07-10T11:59:04.277Z,92.40
2018-07-10T12:01:34.532Z,92.20
2018-07-10T12:04:04.968Z,92.20
2018-07-10T12:06:43.530Z,92.30
2018-07-10T12:09:12.239Z,92.50
2018-07-10T12:11:40.867Z,92.30
2018-07-10T12:14:09.590Z,92.80
2018-07-10T12:16:38.945Z,92.70
2018-07-10T12:19:08.027Z,91.90
2018-07-10T12:21:37.320Z,91.70
2018-07-10T12:24:06.853Z,90.70
2018-07-10T12:26:36.533Z,90.20
2018-07-10T12:29:05.212Z,90.30
2018-07-10T12:31:34.470Z,89.50
2018-07-10T12:34:03.169Z,90.30
2018-07-10T12:36:31.809Z,90.50
2018-07-10T12:39:00.486Z,90.10
2018-07-10T12:41:29.251Z,90.00
2018-07-10T12:43:57.984Z,89.60
2018-07-10T12:46:26.664Z,87.60
2018-07-10T12:48:55.741Z,86.10
2018-07-10T12:51:24.490Z,87.00
2018-07-10T12:53:53.280Z,87.00
2018-07-10T12:56:22.789Z,83.30
2018-07-10T12:58:51.537Z,82.30
2018-07-10T13:01:20.264Z,83.00
2018-07-10T13:03:49.974Z,83.80
2018-07-10T13:06:19.938Z,83.60
2018-07-10T13:08:48.621Z,84.80
2018-07-10T13:11:17.299Z,87.40
2018-07-10T13:13:46.554Z,87.20
2018-07-10T13:16:15.265Z,88.30
2018-07-10T13:18:45.500Z,88.20
2018-07-10T13:21:14.222Z,88.70
2018-07-10T13:26:12.018Z,89.30
2018-07-10T13:28:40.700Z,88.80
2018-07-10T13:31:09.472Z,89.60
2018-07-10T13:33:38.206Z,89.60
2018-07-10T13:36:06.931Z,90.10
2018-07-10T13:38:35.664Z,90.40
2018-07-10T13:41:04.349Z,90.80
2018-07-10T13:43:33.019Z,91.60
2018-07-10T13:46:01.767Z,91.80
2018-07-10T13:48:30.562Z,92.10
2018-07-10T13:50:59.299Z,92.00
2018-07-10T13:53:28.036Z,92.10
2018-07-10T13:55:56.739Z,92.10
2018-07-10T13:58:26.997Z,91.90
2018-07-10T14:01:01.214Z,92.10
2018-07-10T14:03:30.263Z,92.70
2018-07-10T14:05:59.625Z,92.50
2018-07-10T14:08:28.711Z,92.80
2018-07-10T14:10:57.389Z,92.80
2018-07-10T14:13:26.135Z,91.70
2018-07-10T14:15:54.876Z,91.60
2018-07-10T14:18:24.382Z,92.10
2018-07-10T14:20:55.591Z,90.80
2018-07-10T14:23:24.260Z,90.80
2018-07-10T14:25:53.254Z,90.60
2018-07-10T14:28:22.134Z,90.00
2018-07-10T14:30:50.873Z,90.50
2018-07-10T14:33:20.222Z,90.40
2018-07-10T14:35:48.906Z,90.40
2018-07-10T14:38:20.330Z,88.90
2018-07-10T14:40:49.973Z,90.10
2018-07-10T14:43:21.608Z,90.00
2018-07-10T14:45:51.864Z,90.00
2018-07-10T14:48:20.744Z,88.60
2018-07-10T14:50:52.902Z,88.70
2018-07-10T14:53:21.674Z,88.50
2018-07-10T14:55:50.445Z,89.30
2018-07-10T14:58:19.196Z,87.10
2018-07-10T15:00:47.893Z,85.10
2018-07-10T15:03:16.728Z,84.80
2018-07-10T15:05:45.365Z,83.70
2018-07-10T15:08:14.117Z,82.30
2018-07-10T15:10:42.806Z,80.70
2018-07-10T15:13:12.202Z,80.90
2018-07-10T15:15:40.928Z,79.90
2018-07-10T15:18:16.237Z,81.80
2018-07-10T15:20:44.873Z,81.30
2018-07-10T15:23:14.126Z,80.50
2018-07-10T15:25:42.945Z,78.80
2018-07-10T15:28:11.652Z,79.30
2018-07-10T15:30:40.346Z,79.10
2018-07-10T15:33:09.041Z,75.80
2018-07-10T15:35:38.563Z,75.60
2018-07-10T15:38:07.245Z,76.80
2018-07-10T15:40:36.394Z,76.80
2018-07-10T15:43:05.101Z,76.30
2018-07-10T15:45:33.732Z,76.40
2018-07-10T15:48:03.555Z,76.70
2018-07-10T15:50:32.272Z,76.20
2018-07-10T15:53:00.964Z,75.60
2018-07-10T15:55:30.250Z,75.60
2018-07-10T15:57:59.141Z,75.20
2018-07-10T16:02:56.482Z,74.50
2018-07-10T16:05:25.268Z,75.00
2018-07-10T16:08:14.533Z,75.80
2018-07-10T16:10:45.543Z,76.00
2018-07-10T16:13:15.286Z,75.30
2018-07-10T16:18:12.468Z,72.10
2018-07-10T16:20:43.057Z,64.80
2018-07-10T16:23:12.750Z,61.10
2018-07-10T16:25:43.489Z,60.90
2018-07-10T16:28:17.864Z,61.30
2018-07-10T16:30:49.376Z,59.40
2018-07-10T16:33:26.157Z,59.40
2018-07-10T16:38:24.062Z,58.80
2018-07-10T16:40:52.874Z,57.50
2018-07-10T16:43:26.776Z,58.40
2018-07-10T16:45:56.045Z,58.10
2018-07-10T16:48:33.327Z,59.00
2018-07-10T16:51:07.662Z,58.00
2018-07-10T16:53:37.725Z,58.20
2018-07-10T16:56:07.406Z,57.00
2018-07-10T16:58:39.389Z,55.40
2018-07-10T17:01:08.595Z,55.20
2018-07-10T17:03:37.641Z,54.20
2018-07-10T17:08:35.550Z,54.10
2018-07-10T17:11:04.264Z,55.90
2018-07-10T17:13:32.996Z,56.30
2018-07-10T17:16:02.690Z,55.30
2018-07-10T17:18:31.409Z,56.30
2018-07-10T17:21:00.639Z,56.00
2018-07-10T17:23:29.329Z,56.00
2018-07-10T17:25:58.090Z,57.00
2018-07-10T17:28:26.818Z,56.90
2018-07-10T17:30:55.697Z,56.80
2018-07-10T17:33:24.418Z,56.90
2018-07-10T17:35:53.843Z,57.30
2018-07-10T17:38:22.564Z,57.20
2018-07-10T17:40:51.893Z,57.70
2018-07-10T17:45:49.097Z,55.60
2018-07-10T17:48:18.078Z,56.10
2018-07-10T17:50:48.999Z,56.10
2018-07-10T17:53:17.762Z,56.60
2018-07-10T17:55:47.233Z,56.70
2018-07-10T17:58:18.978Z,56.50
2018-07-10T18:00:47.677Z,57.20
2018-07-10T18:03:16.352Z,58.10
2018-07-10T18:05:45.552Z,57.70
2018-07-10T18:08:14.503Z,58.00
2018-07-10T18:10:43.193Z,58.30
2018-07-10T18:13:12.677Z,58.10
2018-07-10T18:15:41.790Z,59.10
2018-07-10T18:18:11.375Z,59.70
2018-07-10T18:20:40.041Z,59.30
2018-07-10T18:25:37.052Z,60.00
2018-07-10T18:28:05.796Z,58.80
2018-07-10T18:30:34.606Z,58.50
2018-07-10T18:33:03.313Z,59.30
2018-07-10T18:35:32.209Z,60.60
2018-07-10T18:38:02.896Z,59.60
2018-07-10T18:40:31.693Z,59.70
2018-07-10T18:43:00.370Z,59.40
2018-07-10T18:45:29.109Z,59.50
2018-07-10T18:47:57.829Z,59.50
2018-07-10T18:50:26.526Z,60.00
2018-07-10T18:52:56.004Z,60.00
2018-07-10T18:55:24.985Z,60.80
2018-07-10T18:58:04.012Z,61.50
2018-07-10T19:00:46.030Z,60.80
2018-07-10T19:03:14.814Z,60.90
2018-07-10T19:05:48.486Z,61.60
2018-07-10T19:08:17.252Z,61.80
2018-07-10T19:10:47.874Z,61.70
2018-07-10T19:13:18.396Z,61.60
2018-07-10T19:15:48.237Z,62.10
2018-07-10T19:18:17.714Z,62.10
2018-07-10T19:20:57.665Z,62.10
2018-07-10T19:23:37.451Z,62.90
2018-07-10T19:26:07.189Z,62.20
2018-07-10T19:28:36.169Z,62.90
2018-07-10T19:31:11.813Z,62.70
2018-07-10T19:33:42.524Z,63.70
2018-07-10T19:36:11.222Z,63.80
2018-07-10T19:38:40.394Z,64.90
2018-07-10T19:41:09.738Z,65.50
2018-07-10T19:43:38.417Z,65.70
2018-07-10T19:46:07.148Z,65.70
2018-07-10T19:48:36.018Z,66.00
2018-07-10T19:51:06.914Z,66.40
2018-07-10T19:53:36.868Z,67.10
2018-07-10T19:56:05.624Z,67.00
2018-07-10T19:58:36.295Z,67.90
2018-07-10T20:01:17.258Z,67.20
2018-07-10T20:04:02.102Z,67.60
2018-07-10T20:06:43.732Z,67.60
2018-07-10T20:09:18.325Z,68.20
2018-07-10T20:12:20.759Z,68.50
2018-07-10T20:14:57.242Z,68.90
2018-07-10T20:17:28.693Z,69.30
2018-07-10T20:20:07.129Z,69.30
2018-07-10T20:22:59.455Z,69.50
2018-07-10T20:25:37.256Z,69.50
2018-07-10T20:28:13.155Z,69.40
2018-07-10T20:31:16.344Z,69.70
2018-07-10T20:35:54.131Z,69.80
2018-07-10T20:38:23.684Z,70.10
2018-07-10T20:40:54.474Z,70.10
2018-07-10T20:43:23.998Z,70.70
2018-07-10T20:45:55.398Z,71.00
2018-07-10T20:48:40.700Z,71.20
2018-07-10T20:51:10.856Z,71.90
2018-07-10T20:53:45.643Z,71.90
2018-07-10T20:56:31.126Z,72.00
2018-07-10T21:00:07.934Z,72.20
2018-07-10T21:02:51.257Z,72.50
2018-07-10T21:05:24.428Z,72.40
2018-07-10T21:08:01.615Z,72.60
2018-07-10T21:10:35.156Z,72.50
2018-07-10T21:13:09.492Z,72.90
2018-07-10T21:16:53.758Z,72.80
2018-07-10T21:19:31.109Z,72.80
2018-07-10T21:22:13.201Z,73.60
2018-07-10T21:24:47.904Z,73.50
2018-07-10T21:27:23.717Z,74.40
2018-07-10T21:30:02.725Z,74.10
2018-07-10T21:32:40.053Z,74.80
2018-07-10T21:35:09.822Z,74.70
2018-07-10T21:38:56.592Z,74.60
2018-07-10T21:42:37.173Z,75.10
2018-07-10T21:47:17.855Z,76.30
2018-07-10T21:49:50.489Z,76.60
2018-07-10T21:52:19.234Z,76.20
2018-07-10T21:54:47.940Z,76.50
2018-07-10T21:57:18.150Z,76.90
2018-07-10T21:59:51.638Z,77.50
2018-07-10T22:02:20.268Z,78.00
2018-07-10T22:04:51.628Z,78.00
2018-07-10T22:07:20.520Z,78.10
2018-07-10T22:09:49.516Z,78.50
2018-07-10T22:12:20.305Z,78.80
2018-07-10T22:14:49.768Z,78.70
2018-07-10T22:17:24.011Z,78.90
2018-07-10T22:19:54.760Z,79.20
2018-07-10T22:22:30.417Z,79.00
2018-07-10T22:25:04.238Z,79.20
2018-07-10T22:30:07.065Z,78.60
2018-07-10T22:32:44.749Z,78.90
2018-07-10T22:35:14.868Z,78.80
2018-07-10T22:37:43.525Z,78.70
2018-07-10T22:40:12.198Z,78.50
2018-07-10T22:42:40.808Z,78.60
2018-07-10T22:45:10.240Z,78.70
2018-07-10T22:47:40.579Z,78.90
2018-07-10T22:50:21.391Z,79.50
2018-07-10T22:52:59.461Z,78.70
2018-07-10T22:55:31.110Z,78.60
2018-07-10T22:58:05.101Z,78.80
2018-07-10T23:00:36.529Z,79.10
2018-07-10T23:03:23.115Z,80.10
2018-07-10T23:05:52.763Z,79.40
2018-07-10T23:08:34.960Z,79.40
2018-07-10T23:11:05.834Z,79.80
2018-07-10T23:13:40.481Z,79.50
2018-07-10T23:16:09.370Z,79.40
2018-07-10T23:18:38.241Z,79.30
2018-07-10T23:21:07.416Z,79.50
2018-07-10T23:23:36.130Z,79.80
2018-07-10T23:26:04.888Z,79.90
2018-07-10T23:28:34.781Z,79.90
2018-07-10T23:31:04.235Z,80.00
2018-07-10T23:33:32.962Z,79.90
2018-07-10T23:36:03.215Z,80.40
2018-07-10T23:38:40.678Z,80.40
2018-07-10T23:41:15.304Z,80.40
2018-07-10T23:43:46.803Z,80.50
2018-07-10T23:46:21.493Z,80.60
2018-07-10T23:48:53.151Z,81.80
2018-07-10T23:51:21.872Z,81.20
2018-07-10T23:53:51.896Z,81.30
2018-07-10T23:56:21.779Z,81.10
2018-07-10T23:58:51.022Z,81.30
